sensor_id;sensor_type;location;lat;lon;timestamp;temperature;humidity
37874;DHT22;23709;48.078;11.684;2024-02-26T00:00:17;2.30;99.90
37874;DHT22;23709;48.078;11.684;2024-02-26T00:02:50;2.40;99.90
37874;DHT22;23709;48.078;11.684;2024-02-26T00:05:22;2.50;99.90
37874;DHT22;23709;48.078;11.684;2024-02-26T00:07:55;2.50;99.90
37874;DHT22;23709;48.078;11.684;2024-02-26T00:10:28;2.40;99.90
37874;DHT22;23709;48.078;11.684;2024-02-26T00:13:00;2.40;99.90
37874;DHT22;23709;48.078;11.684;2024-02-26T00:15:32;2.30;99.90
37874;DHT22;23709;48.078;11.684;2024-02-26T00:18:07;2.20;99.90
37874;DHT22;23709;48.078;11.684;2024-02-26T00:20:40;2.20;99.90
37874;DHT22;23709;48.078;11.684;2024-02-26T00:23:16;2.20;99.90
37874;DHT22;23709;48.078;11.684;2024-02-26T00:25:48;2.20;99.90
37874;DHT22;23709;48.078;11.684;2024-02-26T00:28:21;2.30;99.90
37874;DHT22;23709;48.078;11.684;2024-02-26T00:30:53;2.40;99.90
37874;DHT22;23709;48.078;11.684;2024-02-26T00:33:28;2.30;99.90
37874;DHT22;23709;48.078;11.684;2024-02-26T00:36:01;2.30;99.90
37874;DHT22;23709;48.078;11.684;2024-02-26T00:38:33;2.10;99.90
37874;DHT22;23709;48.078;11.684;2024-02-26T00:41:06;2.10;99.90
37874;DHT22;23709;48.078;11.684;2024-02-26T00:43:38;2.10;99.90
37874;DHT22;23709;48.078;11.684;2024-02-26T00:46:12;2.10;99.90
37874;DHT22;23709;48.078;11.684;2024-02-26T00:48:44;2.00;99.90
37874;DHT22;23709;48.078;11.684;2024-02-26T00:51:17;2.10;99.90
37874;DHT22;23709;48.078;11.684;2024-02-26T00:53:51;2.00;99.90
37874;DHT22;23709;48.078;11.684;2024-02-26T00:56:23;2.00;99.90
37874;DHT22;23709;48.078;11.684;2024-02-26T00:58:55;2.00;99.90
37874;DHT22;23709;48.078;11.684;2024-02-26T01:01:27;2.10;99.90
37874;DHT22;23709;48.078;11.684;2024-02-26T01:04:00;2.20;99.90
37874;DHT22;23709;48.078;11.684;2024-02-26T01:06:33;2.20;99.90
37874;DHT22;23709;48.078;11.684;2024-02-26T01:09:06;2.10;99.90
37874;DHT22;23709;48.078;11.684;2024-02-26T01:11:39;2.00;99.90
37874;DHT22;23709;48.078;11.684;2024-02-26T01:14:11;2.00;99.90
37874;DHT22;23709;48.078;11.684;2024-02-26T01:16:43;2.00;99.90
37874;DHT22;23709;48.078;11.684;2024-02-26T01:19:16;1.90;99.90
37874;DHT22;23709;48.078;11.684;2024-02-26T01:21:48;1.90;99.90
37874;DHT22;23709;48.078;11.684;2024-02-26T01:24:21;1.90;99.90
37874;DHT22;23709;48.078;11.684;2024-02-26T01:26:55;1.90;99.90
37874;DHT22;23709;48.078;11.684;2024-02-26T01:29:27;1.90;99.90
37874;DHT22;23709;48.078;11.684;2024-02-26T01:32:00;1.90;99.90
37874;DHT22;23709;48.078;11.684;2024-02-26T01:34:32;1.90;99.90
37874;DHT22;23709;48.078;11.684;2024-02-26T01:37:04;1.90;99.90
37874;DHT22;23709;48.078;11.684;2024-02-26T01:39:37;1.80;99.90
37874;DHT22;23709;48.078;11.684;2024-02-26T01:42:09;1.80;99.90
37874;DHT22;23709;48.078;11.684;2024-02-26T01:44:41;1.80;99.90
37874;DHT22;23709;48.078;11.684;2024-02-26T01:47:15;1.80;99.90
37874;DHT22;23709;48.078;11.684;2024-02-26T01:49:47;1.80;99.90
37874;DHT22;23709;48.078;11.684;2024-02-26T01:52:21;1.70;99.90
37874;DHT22;23709;48.078;11.684;2024-02-26T01:54:54;1.70;99.90
37874;DHT22;23709;48.078;11.684;2024-02-26T01:57:27;1.70;99.90
37874;DHT22;23709;48.078;11.684;2024-02-26T02:00:00;1.60;99.90
37874;DHT22;23709;48.078;11.684;2024-02-26T02:02:36;1.60;99.90
37874;DHT22;23709;48.078;11.684;2024-02-26T02:05:11;1.60;99.90
37874;DHT22;23709;48.078;11.684;2024-02-26T02:07:44;1.70;99.90
37874;DHT22;23709;48.078;11.684;2024-02-26T02:10:17;1.70;99.90
37874;DHT22;23709;48.078;11.684;2024-02-26T02:12:55;1.70;99.90
37874;DHT22;23709;48.078;11.684;2024-02-26T02:15:27;1.70;99.90
37874;DHT22;23709;48.078;11.684;2024-02-26T02:18:00;1.70;99.90
37874;DHT22;23709;48.078;11.684;2024-02-26T02:20:33;1.70;99.90
37874;DHT22;23709;48.078;11.684;2024-02-26T02:23:08;1.70;99.90
37874;DHT22;23709;48.078;11.684;2024-02-26T02:25:41;1.60;99.90
37874;DHT22;23709;48.078;11.684;2024-02-26T02:28:14;1.60;99.90
37874;DHT22;23709;48.078;11.684;2024-02-26T02:30:46;1.60;99.90
37874;DHT22;23709;48.078;11.684;2024-02-26T02:33:18;1.70;99.90
37874;DHT22;23709;48.078;11.684;2024-02-26T02:35:51;1.70;99.90
37874;DHT22;23709;48.078;11.684;2024-02-26T02:38:26;1.70;99.90
37874;DHT22;23709;48.078;11.684;2024-02-26T02:40:59;1.60;99.90
37874;DHT22;23709;48.078;11.684;2024-02-26T02:43:32;1.60;99.90
37874;DHT22;23709;48.078;11.684;2024-02-26T02:46:04;1.60;99.90
37874;DHT22;23709;48.078;11.684;2024-02-26T02:48:37;1.50;99.90
37874;DHT22;23709;48.078;11.684;2024-02-26T02:51:10;1.60;99.90
37874;DHT22;23709;48.078;11.684;2024-02-26T02:53:43;1.60;99.90
37874;DHT22;23709;48.078;11.684;2024-02-26T02:56:16;1.60;99.90
37874;DHT22;23709;48.078;11.684;2024-02-26T02:58:48;1.50;99.90
37874;DHT22;23709;48.078;11.684;2024-02-26T03:01:20;1.50;99.90
37874;DHT22;23709;48.078;11.684;2024-02-26T03:03:52;1.40;99.90
37874;DHT22;23709;48.078;11.684;2024-02-26T03:06:26;1.30;99.90
37874;DHT22;23709;48.078;11.684;2024-02-26T03:08:59;1.30;99.90
37874;DHT22;23709;48.078;11.684;2024-02-26T03:11:33;1.40;99.90
37874;DHT22;23709;48.078;11.684;2024-02-26T03:14:05;1.30;99.90
37874;DHT22;23709;48.078;11.684;2024-02-26T03:16:38;1.30;99.90
37874;DHT22;23709;48.078;11.684;2024-02-26T03:19:10;1.40;99.90
37874;DHT22;23709;48.078;11.684;2024-02-26T03:21:43;1.40;99.90
37874;DHT22;23709;48.078;11.684;2024-02-26T03:24:15;1.40;99.90
37874;DHT22;23709;48.078;11.684;2024-02-26T03:26:47;1.40;99.90
37874;DHT22;23709;48.078;11.684;2024-02-26T03:29:20;1.40;99.90
37874;DHT22;23709;48.078;11.684;2024-02-26T03:31:52;1.40;99.90
37874;DHT22;23709;48.078;11.684;2024-02-26T03:34:25;1.40;99.90
37874;DHT22;23709;48.078;11.684;2024-02-26T03:36:58;1.40;99.90
37874;DHT22;23709;48.078;11.684;2024-02-26T03:39:30;1.40;99.90
37874;DHT22;23709;48.078;11.684;2024-02-26T03:42:03;1.40;99.90
37874;DHT22;23709;48.078;11.684;2024-02-26T03:44:35;1.40;99.90
37874;DHT22;23709;48.078;11.684;2024-02-26T03:47:08;1.40;99.90
37874;DHT22;23709;48.078;11.684;2024-02-26T03:49:40;1.40;99.90
37874;DHT22;23709;48.078;11.684;2024-02-26T03:52:14;1.40;99.90
37874;DHT22;23709;48.078;11.684;2024-02-26T03:54:47;1.30;99.90
37874;DHT22;23709;48.078;11.684;2024-02-26T03:57:20;1.40;99.90
37874;DHT22;23709;48.078;11.684;2024-02-26T03:59:52;1.40;99.90
37874;DHT22;23709;48.078;11.684;2024-02-26T04:02:25;1.40;99.90
37874;DHT22;23709;48.078;11.684;2024-02-26T04:04:57;1.40;99.90
37874;DHT22;23709;48.078;11.684;2024-02-26T04:07:31;1.40;99.90
37874;DHT22;23709;48.078;11.684;2024-02-26T04:10:04;1.30;99.90
37874;DHT22;23709;48.078;11.684;2024-02-26T04:12:41;1.30;99.90
37874;DHT22;23709;48.078;11.684;2024-02-26T04:15:14;1.30;99.90
37874;DHT22;23709;48.078;11.684;2024-02-26T04:17:47;1.30;99.90
37874;DHT22;23709;48.078;11.684;2024-02-26T04:20:19;1.30;99.90
37874;DHT22;23709;48.078;11.684;2024-02-26T04:22:52;1.20;99.90
37874;DHT22;23709;48.078;11.684;2024-02-26T04:25:25;1.20;99.90
37874;DHT22;23709;48.078;11.684;2024-02-26T04:27:57;1.20;99.90
37874;DHT22;23709;48.078;11.684;2024-02-26T04:30:30;1.10;99.90
37874;DHT22;23709;48.078;11.684;2024-02-26T04:33:02;1.10;99.90
37874;DHT22;23709;48.078;11.684;2024-02-26T04:35:35;1.20;99.90
37874;DHT22;23709;48.078;11.684;2024-02-26T04:38:07;1.20;99.90
37874;DHT22;23709;48.078;11.684;2024-02-26T04:40:40;1.10;99.90
37874;DHT22;23709;48.078;11.684;2024-02-26T04:43:12;1.10;99.90
37874;DHT22;23709;48.078;11.684;2024-02-26T04:45:45;1.10;99.90
37874;DHT22;23709;48.078;11.684;2024-02-26T04:48:18;1.10;99.90
37874;DHT22;23709;48.078;11.684;2024-02-26T04:50:50;1.20;99.90
37874;DHT22;23709;48.078;11.684;2024-02-26T04:53:23;1.20;99.90
37874;DHT22;23709;48.078;11.684;2024-02-26T04:55:55;1.20;99.90
37874;DHT22;23709;48.078;11.684;2024-02-26T04:58:27;1.20;99.90
37874;DHT22;23709;48.078;11.684;2024-02-26T05:01:00;1.20;99.90
37874;DHT22;23709;48.078;11.684;2024-02-26T05:03:32;1.20;99.90
37874;DHT22;23709;48.078;11.684;2024-02-26T05:06:08;1.20;99.90
37874;DHT22;23709;48.078;11.684;2024-02-26T05:08:41;1.20;99.90
37874;DHT22;23709;48.078;11.684;2024-02-26T05:11:16;1.20;99.90
37874;DHT22;23709;48.078;11.684;2024-02-26T05:13:50;1.20;99.90
37874;DHT22;23709;48.078;11.684;2024-02-26T05:16:23;1.20;99.90
37874;DHT22;23709;48.078;11.684;2024-02-26T05:18:57;1.20;99.90
37874;DHT22;23709;48.078;11.684;2024-02-26T05:21:30;1.10;99.90
37874;DHT22;23709;48.078;11.684;2024-02-26T05:24:02;1.20;99.90
37874;DHT22;23709;48.078;11.684;2024-02-26T05:26:35;1.10;99.90
37874;DHT22;23709;48.078;11.684;2024-02-26T05:29:08;1.00;99.90
37874;DHT22;23709;48.078;11.684;2024-02-26T05:31:43;1.00;99.90
37874;DHT22;23709;48.078;11.684;2024-02-26T05:34:15;1.10;99.90
37874;DHT22;23709;48.078;11.684;2024-02-26T05:36:48;1.20;99.90
37874;DHT22;23709;48.078;11.684;2024-02-26T05:39:20;1.20;99.90
37874;DHT22;23709;48.078;11.684;2024-02-26T05:41:52;1.10;99.90
37874;DHT22;23709;48.078;11.684;2024-02-26T05:44:26;1.20;99.90
37874;DHT22;23709;48.078;11.684;2024-02-26T05:46:58;1.10;99.90
37874;DHT22;23709;48.078;11.684;2024-02-26T05:49:31;1.20;99.90
37874;DHT22;23709;48.078;11.684;2024-02-26T05:52:04;1.20;99.90
37874;DHT22;23709;48.078;11.684;2024-02-26T05:54:37;1.20;99.90
37874;DHT22;23709;48.078;11.684;2024-02-26T05:57:09;1.30;99.90
37874;DHT22;23709;48.078;11.684;2024-02-26T05:59:43;1.20;99.90
37874;DHT22;23709;48.078;11.684;2024-02-26T06:02:16;1.10;99.90
37874;DHT22;23709;48.078;11.684;2024-02-26T06:04:48;1.10;99.90
37874;DHT22;23709;48.078;11.684;2024-02-26T06:07:22;1.20;99.90
37874;DHT22;23709;48.078;11.684;2024-02-26T06:09:54;1.30;99.90
37874;DHT22;23709;48.078;11.684;2024-02-26T06:12:26;1.40;99.90
37874;DHT22;23709;48.078;11.684;2024-02-26T06:15:00;1.50;99.90
37874;DHT22;23709;48.078;11.684;2024-02-26T06:17:34;1.50;99.90
37874;DHT22;23709;48.078;11.684;2024-02-26T06:20:07;1.50;99.90
37874;DHT22;23709;48.078;11.684;2024-02-26T06:22:44;1.50;99.90
37874;DHT22;23709;48.078;11.684;2024-02-26T06:25:16;1.50;99.90
37874;DHT22;23709;48.078;11.684;2024-02-26T06:27:49;1.60;99.90
37874;DHT22;23709;48.078;11.684;2024-02-26T06:30:21;1.60;99.90
37874;DHT22;23709;48.078;11.684;2024-02-26T06:32:54;1.70;99.90
37874;DHT22;23709;48.078;11.684;2024-02-26T06:35:26;1.70;99.90
37874;DHT22;23709;48.078;11.684;2024-02-26T06:37:59;1.80;99.90
37874;DHT22;23709;48.078;11.684;2024-02-26T06:40:32;1.80;99.90
37874;DHT22;23709;48.078;11.684;2024-02-26T06:43:04;1.90;99.90
37874;DHT22;23709;48.078;11.684;2024-02-26T06:45:37;1.90;99.90
37874;DHT22;23709;48.078;11.684;2024-02-26T06:48:09;2.00;99.90
37874;DHT22;23709;48.078;11.684;2024-02-26T06:50:42;2.00;99.90
37874;DHT22;23709;48.078;11.684;2024-02-26T06:53:15;2.20;99.90
37874;DHT22;23709;48.078;11.684;2024-02-26T06:55:48;2.20;99.90
37874;DHT22;23709;48.078;11.684;2024-02-26T06:58:22;2.30;99.90
37874;DHT22;23709;48.078;11.684;2024-02-26T07:00:54;2.40;99.90
37874;DHT22;23709;48.078;11.684;2024-02-26T07:03:27;2.30;99.90
37874;DHT22;23709;48.078;11.684;2024-02-26T07:06:00;2.50;99.90
37874;DHT22;23709;48.078;11.684;2024-02-26T07:08:32;2.50;99.90
37874;DHT22;23709;48.078;11.684;2024-02-26T07:11:07;2.60;99.90
37874;DHT22;23709;48.078;11.684;2024-02-26T07:13:40;2.60;99.90
37874;DHT22;23709;48.078;11.684;2024-02-26T07:16:13;2.60;99.90
37874;DHT22;23709;48.078;11.684;2024-02-26T07:18:46;2.70;99.90
37874;DHT22;23709;48.078;11.684;2024-02-26T07:21:18;2.70;99.90
37874;DHT22;23709;48.078;11.684;2024-02-26T07:23:51;2.70;99.90
37874;DHT22;23709;48.078;11.684;2024-02-26T07:26:23;2.80;99.90
37874;DHT22;23709;48.078;11.684;2024-02-26T07:28:58;2.80;99.90
37874;DHT22;23709;48.078;11.684;2024-02-26T07:31:31;2.90;99.90
37874;DHT22;23709;48.078;11.684;2024-02-26T07:34:03;3.00;99.90
37874;DHT22;23709;48.078;11.684;2024-02-26T07:36:37;3.00;99.90
37874;DHT22;23709;48.078;11.684;2024-02-26T07:39:09;3.10;99.90
37874;DHT22;23709;48.078;11.684;2024-02-26T07:41:42;3.20;99.90
37874;DHT22;23709;48.078;11.684;2024-02-26T07:44:18;3.30;99.90
37874;DHT22;23709;48.078;11.684;2024-02-26T07:46:52;3.30;99.90
37874;DHT22;23709;48.078;11.684;2024-02-26T07:49:24;3.30;99.90
37874;DHT22;23709;48.078;11.684;2024-02-26T07:51:57;3.40;99.90
37874;DHT22;23709;48.078;11.684;2024-02-26T07:54:30;3.50;99.90
37874;DHT22;23709;48.078;11.684;2024-02-26T07:57:02;3.50;99.90
37874;DHT22;23709;48.078;11.684;2024-02-26T07:59:37;3.60;99.90
37874;DHT22;23709;48.078;11.684;2024-02-26T08:02:12;3.70;99.90
37874;DHT22;23709;48.078;11.684;2024-02-26T08:04:44;3.80;99.90
37874;DHT22;23709;48.078;11.684;2024-02-26T08:07:17;4.00;99.90
37874;DHT22;23709;48.078;11.684;2024-02-26T08:09:50;4.00;99.90
37874;DHT22;23709;48.078;11.684;2024-02-26T08:12:22;4.20;99.90
37874;DHT22;23709;48.078;11.684;2024-02-26T08:14:54;4.30;99.90
37874;DHT22;23709;48.078;11.684;2024-02-26T08:17:27;4.30;99.90
37874;DHT22;23709;48.078;11.684;2024-02-26T08:20:01;4.40;99.90
37874;DHT22;23709;48.078;11.684;2024-02-26T08:22:34;4.40;99.90
37874;DHT22;23709;48.078;11.684;2024-02-26T08:25:07;4.40;99.90
37874;DHT22;23709;48.078;11.684;2024-02-26T08:27:41;4.50;99.90
37874;DHT22;23709;48.078;11.684;2024-02-26T08:30:15;4.60;99.90
37874;DHT22;23709;48.078;11.684;2024-02-26T08:32:49;4.70;99.90
37874;DHT22;23709;48.078;11.684;2024-02-26T08:35:24;4.80;99.90
37874;DHT22;23709;48.078;11.684;2024-02-26T08:37:56;4.90;99.90
37874;DHT22;23709;48.078;11.684;2024-02-26T08:40:29;5.00;99.90
37874;DHT22;23709;48.078;11.684;2024-02-26T08:43:02;5.00;99.90
37874;DHT22;23709;48.078;11.684;2024-02-26T08:45:34;5.10;99.90
37874;DHT22;23709;48.078;11.684;2024-02-26T08:48:07;5.30;99.90
37874;DHT22;23709;48.078;11.684;2024-02-26T08:50:40;5.40;99.90
37874;DHT22;23709;48.078;11.684;2024-02-26T08:53:12;5.60;99.90
37874;DHT22;23709;48.078;11.684;2024-02-26T08:55:45;5.70;99.90
37874;DHT22;23709;48.078;11.684;2024-02-26T08:58:18;5.80;99.90
37874;DHT22;23709;48.078;11.684;2024-02-26T09:00:51;5.90;99.90
37874;DHT22;23709;48.078;11.684;2024-02-26T09:03:23;6.00;99.90
37874;DHT22;23709;48.078;11.684;2024-02-26T09:05:56;6.00;99.90
37874;DHT22;23709;48.078;11.684;2024-02-26T09:08:29;6.20;99.90
37874;DHT22;23709;48.078;11.684;2024-02-26T09:11:02;6.20;99.90
37874;DHT22;23709;48.078;11.684;2024-02-26T09:13:35;6.30;99.90
37874;DHT22;23709;48.078;11.684;2024-02-26T09:16:08;6.30;99.90
37874;DHT22;23709;48.078;11.684;2024-02-26T09:18:40;6.30;99.90
37874;DHT22;23709;48.078;11.684;2024-02-26T09:21:13;6.40;99.90
37874;DHT22;23709;48.078;11.684;2024-02-26T09:23:46;6.50;99.90
37874;DHT22;23709;48.078;11.684;2024-02-26T09:26:18;6.60;99.90
37874;DHT22;23709;48.078;11.684;2024-02-26T09:28:51;6.70;99.90
37874;DHT22;23709;48.078;11.684;2024-02-26T09:31:23;6.80;99.90
37874;DHT22;23709;48.078;11.684;2024-02-26T09:33:56;6.80;99.90
37874;DHT22;23709;48.078;11.684;2024-02-26T09:36:36;6.90;99.90
37874;DHT22;23709;48.078;11.684;2024-02-26T09:39:09;7.00;99.90
37874;DHT22;23709;48.078;11.684;2024-02-26T09:41:44;7.10;99.90
37874;DHT22;23709;48.078;11.684;2024-02-26T09:44:19;7.10;99.90
37874;DHT22;23709;48.078;11.684;2024-02-26T09:46:55;7.20;99.90
37874;DHT22;23709;48.078;11.684;2024-02-26T09:49:27;7.30;99.90
37874;DHT22;23709;48.078;11.684;2024-02-26T09:52:00;7.30;99.90
37874;DHT22;23709;48.078;11.684;2024-02-26T09:54:34;7.40;99.90
37874;DHT22;23709;48.078;11.684;2024-02-26T09:57:09;7.40;99.90
37874;DHT22;23709;48.078;11.684;2024-02-26T09:59:48;7.50;99.90
37874;DHT22;23709;48.078;11.684;2024-02-26T10:02:22;7.50;99.90
37874;DHT22;23709;48.078;11.684;2024-02-26T10:04:55;7.50;99.90
37874;DHT22;23709;48.078;11.684;2024-02-26T10:07:29;7.60;99.90
37874;DHT22;23709;48.078;11.684;2024-02-26T10:10:03;7.60;99.90
37874;DHT22;23709;48.078;11.684;2024-02-26T10:12:36;7.60;99.90
37874;DHT22;23709;48.078;11.684;2024-02-26T10:15:08;7.60;99.90
37874;DHT22;23709;48.078;11.684;2024-02-26T10:17:41;7.70;99.90
37874;DHT22;23709;48.078;11.684;2024-02-26T10:20:16;7.80;99.90
37874;DHT22;23709;48.078;11.684;2024-02-26T10:22:51;7.90;99.90
37874;DHT22;23709;48.078;11.684;2024-02-26T10:25:24;8.00;99.90
37874;DHT22;23709;48.078;11.684;2024-02-26T10:28:00;8.00;99.90
37874;DHT22;23709;48.078;11.684;2024-02-26T10:30:36;8.10;99.90
37874;DHT22;23709;48.078;11.684;2024-02-26T10:33:10;8.10;99.90
37874;DHT22;23709;48.078;11.684;2024-02-26T10:35:46;8.20;99.90
37874;DHT22;23709;48.078;11.684;2024-02-26T10:38:19;8.20;99.90
37874;DHT22;23709;48.078;11.684;2024-02-26T10:40:52;8.30;99.90
37874;DHT22;23709;48.078;11.684;2024-02-26T10:43:27;8.40;99.90
37874;DHT22;23709;48.078;11.684;2024-02-26T10:46:00;8.40;99.90
37874;DHT22;23709;48.078;11.684;2024-02-26T10:48:32;8.50;99.90
37874;DHT22;23709;48.078;11.684;2024-02-26T10:51:05;8.60;99.90
37874;DHT22;23709;48.078;11.684;2024-02-26T10:53:38;8.70;99.90
37874;DHT22;23709;48.078;11.684;2024-02-26T10:56:13;8.80;99.90
37874;DHT22;23709;48.078;11.684;2024-02-26T10:58:46;8.90;99.90
37874;DHT22;23709;48.078;11.684;2024-02-26T11:01:20;9.10;99.90
37874;DHT22;23709;48.078;11.684;2024-02-26T11:03:54;9.20;99.90
37874;DHT22;23709;48.078;11.684;2024-02-26T11:06:28;9.40;99.90
37874;DHT22;23709;48.078;11.684;2024-02-26T11:09:02;9.50;99.90
37874;DHT22;23709;48.078;11.684;2024-02-26T11:11:34;9.60;99.70
37874;DHT22;23709;48.078;11.684;2024-02-26T11:14:09;9.80;99.40
37874;DHT22;23709;48.078;11.684;2024-02-26T11:16:42;10.00;98.90
37874;DHT22;23709;48.078;11.684;2024-02-26T11:19:16;10.20;98.40
37874;DHT22;23709;48.078;11.684;2024-02-26T11:21:49;10.40;98.20
37874;DHT22;23709;48.078;11.684;2024-02-26T11:24:21;10.60;96.80
37874;DHT22;23709;48.078;11.684;2024-02-26T11:26:58;10.70;96.20
37874;DHT22;23709;48.078;11.684;2024-02-26T11:29:43;10.80;95.40
37874;DHT22;23709;48.078;11.684;2024-02-26T11:32:17;10.90;95.80
37874;DHT22;23709;48.078;11.684;2024-02-26T11:34:49;10.90;95.80
37874;DHT22;23709;48.078;11.684;2024-02-26T11:37:22;11.00;95.10
37874;DHT22;23709;48.078;11.684;2024-02-26T11:39:59;11.00;95.30
37874;DHT22;23709;48.078;11.684;2024-02-26T11:42:32;11.20;95.00
37874;DHT22;23709;48.078;11.684;2024-02-26T11:48:23;12.10;93.70
37874;DHT22;23709;48.078;11.684;2024-02-26T11:50:57;13.10;93.10
37874;DHT22;23709;48.078;11.684;2024-02-26T11:53:31;14.00;90.20
37874;DHT22;23709;48.078;11.684;2024-02-26T11:56:13;15.40;85.00
37874;DHT22;23709;48.078;11.684;2024-02-26T11:58:47;16.60;77.90
37874;DHT22;23709;48.078;11.684;2024-02-26T12:01:45;18.20;70.00
37874;DHT22;23709;48.078;11.684;2024-02-26T12:04:26;20.00;64.10
37874;DHT22;23709;48.078;11.684;2024-02-26T12:07:03;21.20;59.10
37874;DHT22;23709;48.078;11.684;2024-02-26T12:09:41;21.20;55.90
37874;DHT22;23709;48.078;11.684;2024-02-26T12:12:18;21.10;57.30
37874;DHT22;23709;48.078;11.684;2024-02-26T12:14:56;21.80;54.80
37874;DHT22;23709;48.078;11.684;2024-02-26T12:17:29;21.80;53.30
37874;DHT22;23709;48.078;11.684;2024-02-26T12:20:10;20.90;53.00
37874;DHT22;23709;48.078;11.684;2024-02-26T12:22:47;19.10;54.20
37874;DHT22;23709;48.078;11.684;2024-02-26T12:25:28;17.40;58.10
37874;DHT22;23709;48.078;11.684;2024-02-26T12:28:01;16.20;60.00
37874;DHT22;23709;48.078;11.684;2024-02-26T12:30:35;15.30;61.90
37874;DHT22;23709;48.078;11.684;2024-02-26T12:33:07;14.80;62.40
37874;DHT22;23709;48.078;11.684;2024-02-26T12:35:40;14.70;63.20
37874;DHT22;23709;48.078;11.684;2024-02-26T12:38:14;14.90;63.00
37874;DHT22;23709;48.078;11.684;2024-02-26T12:40:47;14.80;62.60
37874;DHT22;23709;48.078;11.684;2024-02-26T12:43:21;15.00;62.30
37874;DHT22;23709;48.078;11.684;2024-02-26T12:45:54;14.70;61.10
37874;DHT22;23709;48.078;11.684;2024-02-26T12:48:26;14.30;62.70
37874;DHT22;23709;48.078;11.684;2024-02-26T12:50:59;14.10;62.20
37874;DHT22;23709;48.078;11.684;2024-02-26T12:53:32;14.00;63.90
37874;DHT22;23709;48.078;11.684;2024-02-26T12:56:07;14.00;65.10
37874;DHT22;23709;48.078;11.684;2024-02-26T12:58:40;13.80;62.80
37874;DHT22;23709;48.078;11.684;2024-02-26T13:01:14;14.00;63.30
37874;DHT22;23709;48.078;11.684;2024-02-26T13:03:47;14.10;63.20
37874;DHT22;23709;48.078;11.684;2024-02-26T13:06:20;14.20;62.90
37874;DHT22;23709;48.078;11.684;2024-02-26T13:08:57;14.80;63.30
37874;DHT22;23709;48.078;11.684;2024-02-26T13:11:31;16.00;60.30
37874;DHT22;23709;48.078;11.684;2024-02-26T13:14:04;17.30;58.80
37874;DHT22;23709;48.078;11.684;2024-02-26T13:16:39;17.10;59.80
37874;DHT22;23709;48.078;11.684;2024-02-26T13:19:12;16.90;59.80
37874;DHT22;23709;48.078;11.684;2024-02-26T13:21:44;17.50;59.90
37874;DHT22;23709;48.078;11.684;2024-02-26T13:24:17;17.40;60.30
37874;DHT22;23709;48.078;11.684;2024-02-26T13:26:55;17.20;60.10
37874;DHT22;23709;48.078;11.684;2024-02-26T13:29:27;17.00;63.60
37874;DHT22;23709;48.078;11.684;2024-02-26T13:32:00;16.40;66.20
37874;DHT22;23709;48.078;11.684;2024-02-26T13:34:32;15.80;69.30
37874;DHT22;23709;48.078;11.684;2024-02-26T13:37:06;15.60;70.30
37874;DHT22;23709;48.078;11.684;2024-02-26T13:39:41;15.40;70.60
37874;DHT22;23709;48.078;11.684;2024-02-26T13:42:14;15.00;71.90
37874;DHT22;23709;48.078;11.684;2024-02-26T13:44:47;15.40;71.90
37874;DHT22;23709;48.078;11.684;2024-02-26T13:47:19;15.40;71.80
37874;DHT22;23709;48.078;11.684;2024-02-26T13:49:52;15.10;72.10
37874;DHT22;23709;48.078;11.684;2024-02-26T13:52:25;14.90;73.80
37874;DHT22;23709;48.078;11.684;2024-02-26T13:55:00;15.70;73.00
37874;DHT22;23709;48.078;11.684;2024-02-26T13:57:33;15.80;72.10
37874;DHT22;23709;48.078;11.684;2024-02-26T14:00:07;15.80;71.50
37874;DHT22;23709;48.078;11.684;2024-02-26T14:02:43;16.20;70.80
37874;DHT22;23709;48.078;11.684;2024-02-26T14:05:15;15.60;71.80
37874;DHT22;23709;48.078;11.684;2024-02-26T14:07:48;15.30;73.10
37874;DHT22;23709;48.078;11.684;2024-02-26T14:10:24;15.30;73.30
37874;DHT22;23709;48.078;11.684;2024-02-26T14:12:58;15.20;73.20
37874;DHT22;23709;48.078;11.684;2024-02-26T14:15:31;15.30;73.10
37874;DHT22;23709;48.078;11.684;2024-02-26T14:18:07;15.00;73.10
37874;DHT22;23709;48.078;11.684;2024-02-26T14:20:40;14.70;74.20
37874;DHT22;23709;48.078;11.684;2024-02-26T14:23:12;14.20;75.20
37874;DHT22;23709;48.078;11.684;2024-02-26T14:25:45;13.80;76.50
37874;DHT22;23709;48.078;11.684;2024-02-26T14:28:18;13.70;77.60
37874;DHT22;23709;48.078;11.684;2024-02-26T14:31:00;13.50;78.80
37874;DHT22;23709;48.078;11.684;2024-02-26T14:33:32;13.30;80.00
37874;DHT22;23709;48.078;11.684;2024-02-26T14:36:06;13.10;80.70
37874;DHT22;23709;48.078;11.684;2024-02-26T14:38:39;13.00;81.50
37874;DHT22;23709;48.078;11.684;2024-02-26T14:41:12;12.90;82.20
37874;DHT22;23709;48.078;11.684;2024-02-26T14:43:44;12.80;83.10
37874;DHT22;23709;48.078;11.684;2024-02-26T14:46:18;12.70;84.20
37874;DHT22;23709;48.078;11.684;2024-02-26T14:48:51;12.60;85.10
37874;DHT22;23709;48.078;11.684;2024-02-26T14:51:24;12.50;84.80
37874;DHT22;23709;48.078;11.684;2024-02-26T14:53:57;12.40;86.20
37874;DHT22;23709;48.078;11.684;2024-02-26T14:56:31;12.30;85.30
37874;DHT22;23709;48.078;11.684;2024-02-26T14:59:05;12.20;85.60
37874;DHT22;23709;48.078;11.684;2024-02-26T15:01:38;12.20;86.60
37874;DHT22;23709;48.078;11.684;2024-02-26T15:04:10;12.10;86.50
37874;DHT22;23709;48.078;11.684;2024-02-26T15:06:43;12.00;86.60
37874;DHT22;23709;48.078;11.684;2024-02-26T15:09:15;12.00;87.00
37874;DHT22;23709;48.078;11.684;2024-02-26T15:11:48;12.00;87.50
37874;DHT22;23709;48.078;11.684;2024-02-26T15:14:21;11.80;88.00
37874;DHT22;23709;48.078;11.684;2024-02-26T15:16:54;11.70;88.30
37874;DHT22;23709;48.078;11.684;2024-02-26T15:19:26;11.70;89.00
37874;DHT22;23709;48.078;11.684;2024-02-26T15:21:58;11.70;89.80
37874;DHT22;23709;48.078;11.684;2024-02-26T15:24:31;11.60;88.90
37874;DHT22;23709;48.078;11.684;2024-02-26T15:27:03;11.60;88.80
37874;DHT22;23709;48.078;11.684;2024-02-26T15:29:36;11.60;89.50
37874;DHT22;23709;48.078;11.684;2024-02-26T15:32:10;11.50;89.20
37874;DHT22;23709;48.078;11.684;2024-02-26T15:34:43;11.50;89.80
37874;DHT22;23709;48.078;11.684;2024-02-26T15:37:16;11.40;90.20
37874;DHT22;23709;48.078;11.684;2024-02-26T15:39:51;11.40;90.30
37874;DHT22;23709;48.078;11.684;2024-02-26T15:42:23;11.30;90.40
37874;DHT22;23709;48.078;11.684;2024-02-26T15:45:00;11.30;90.80
37874;DHT22;23709;48.078;11.684;2024-02-26T15:47:32;11.20;90.70
37874;DHT22;23709;48.078;11.684;2024-02-26T15:50:06;11.10;90.90
37874;DHT22;23709;48.078;11.684;2024-02-26T15:52:39;11.10;91.10
37874;DHT22;23709;48.078;11.684;2024-02-26T15:55:12;11.00;91.10
37874;DHT22;23709;48.078;11.684;2024-02-26T15:57:49;11.00;91.30
37874;DHT22;23709;48.078;11.684;2024-02-26T16:00:21;10.90;91.40
37874;DHT22;23709;48.078;11.684;2024-02-26T16:02:54;10.80;91.40
37874;DHT22;23709;48.078;11.684;2024-02-26T16:05:26;10.80;91.70
37874;DHT22;23709;48.078;11.684;2024-02-26T16:08:01;10.80;92.00